sensor_id;sensor_type;location;lat;lon;timestamp;pressure;altitude;pressure_sealevel;temperature;humidity
23166;BME280;11751;42.700;24.170;2022-11-09T00:02:05;94560.78;;;12.48;nan
23166;BME280;11751;42.700;24.170;2022-11-09T00:04:31;94569.22;;;12.48;nan
23166;BME280;11751;42.700;24.170;2022-11-09T00:06:56;94569.22;;;12.48;nan
23166;BME280;11751;42.700;24.170;2022-11-09T00:09:21;94569.06;;;12.46;nan
23166;BME280;11751;42.700;24.170;2022-11-09T00:11:47;94576.72;;;12.46;nan
23166;BME280;11751;42.700;24.170;2022-11-09T00:14:16;94567.34;;;12.43;nan
23166;BME280;11751;42.700;24.170;2022-11-09T00:16:42;94568.84;;;12.44;nan
23166;BME280;11751;42.700;24.170;2022-11-09T00:19:07;94572.41;;;12.45;nan
23166;BME280;11751;42.700;24.170;2022-11-09T00:21:33;94562.47;;;12.44;nan
23166;BME280;11751;42.700;24.170;2022-11-09T00:23:58;94565.69;;;12.48;nan
23166;BME280;11751;42.700;24.170;2022-11-09T00:26:24;94569.63;;;12.52;nan
23166;BME280;11751;42.700;24.170;2022-11-09T00:28:50;94563.97;;;12.45;nan
23166;BME280;11751;42.700;24.170;2022-11-09T00:31:18;94564.16;;;12.47;nan
23166;BME280;11751;42.700;24.170;2022-11-09T00:33:54;94564.16;;;12.47;nan
23166;BME280;11751;42.700;24.170;2022-11-09T00:36:21;94559.88;;;12.46;nan
23166;BME280;11751;42.700;24.170;2022-11-09T00:38:52;94560.06;;;12.48;nan
23166;BME280;11751;42.700;24.170;2022-11-09T00:41:18;94560.94;;;12.28;nan
23166;BME280;11751;42.700;24.170;2022-11-09T00:43:44;94558.53;;;12.39;nan
23166;BME280;11751;42.700;24.170;2022-11-09T00:46:10;94558.00;;;12.48;nan
23166;BME280;11751;42.700;24.170;2022-11-09T00:48:35;94566.97;;;12.47;nan
23166;BME280;11751;42.700;24.170;2022-11-09T00:51:01;94561.00;;;12.50;nan
23166;BME280;11751;42.700;24.170;2022-11-09T00:53:29;94547.13;;;12.45;nan
23166;BME280;11751;42.700;24.170;2022-11-09T00:56:09;94546.38;;;12.37;nan
23166;BME280;11751;42.700;24.170;2022-11-09T00:58:36;94554.94;;;12.16;nan
23166;BME280;11751;42.700;24.170;2022-11-09T01:01:08;94552.28;;;12.11;nan
23166;BME280;11751;42.700;24.170;2022-11-09T01:03:35;94547.81;;;12.15;nan
23166;BME280;11751;42.700;24.170;2022-11-09T01:06:01;94546.88;;;12.13;nan
23166;BME280;11751;42.700;24.170;2022-11-09T01:08:27;94539.19;;;12.13;nan
23166;BME280;11751;42.700;24.170;2022-11-09T01:10:52;94549.31;;;12.16;nan
23166;BME280;11751;42.700;24.170;2022-11-09T01:13:18;94547.41;;;12.11;nan
23166;BME280;11751;42.700;24.170;2022-11-09T01:15:48;94549.28;;;12.09;nan
23166;BME280;11751;42.700;24.170;2022-11-09T01:18:14;94537.31;;;12.08;nan
23166;BME280;11751;42.700;24.170;2022-11-09T01:20:42;94536.91;;;12.04;nan
23166;BME280;11751;42.700;24.170;2022-11-09T01:23:08;94529.78;;;12.03;nan
23166;BME280;11751;42.700;24.170;2022-11-09T01:25:34;94532.41;;;11.94;nan
23166;BME280;11751;42.700;24.170;2022-11-09T01:28:00;94527.53;;;11.94;nan
23166;BME280;11751;42.700;24.170;2022-11-09T01:30:26;94534.06;;;11.97;nan
23166;BME280;11751;42.700;24.170;2022-11-09T01:32:52;94533.50;;;11.91;nan
23166;BME280;11751;42.700;24.170;2022-11-09T01:35:17;94527.66;;;11.82;nan
23166;BME280;11751;42.700;24.170;2022-11-09T01:37:43;94528.53;;;11.69;nan
23166;BME280;11751;42.700;24.170;2022-11-09T01:40:09;94518.94;;;11.57;nan
23166;BME280;11751;42.700;24.170;2022-11-09T01:42:36;94525.50;;;11.60;nan
23166;BME280;11751;42.700;24.170;2022-11-09T01:47:39;94517.44;;;11.56;nan
23166;BME280;11751;42.700;24.170;2022-11-09T01:50:05;94526.19;;;11.53;nan
23166;BME280;11751;42.700;24.170;2022-11-09T01:52:35;94522.00;;;11.39;nan
23166;BME280;11751;42.700;24.170;2022-11-09T01:55:09;94527.59;;;11.39;nan
23166;BME280;11751;42.700;24.170;2022-11-09T01:57:50;94529.13;;;11.40;nan
23166;BME280;11751;42.700;24.170;2022-11-09T02:00:18;94526.31;;;11.40;nan
23166;BME280;11751;42.700;24.170;2022-11-09T02:02:53;94531.50;;;11.36;nan
23166;BME280;11751;42.700;24.170;2022-11-09T02:05:23;94530.22;;;11.37;nan
23166;BME280;11751;42.700;24.170;2022-11-09T02:07:49;94525.91;;;11.36;nan
23166;BME280;11751;42.700;24.170;2022-11-09T02:10:28;94532.84;;;11.42;nan
23166;BME280;11751;42.700;24.170;2022-11-09T02:12:55;94529.25;;;11.34;nan
23166;BME280;11751;42.700;24.170;2022-11-09T02:15:22;94537.31;;;11.38;nan
23166;BME280;11751;42.700;24.170;2022-11-09T02:17:51;94536.97;;;11.41;nan
23166;BME280;11751;42.700;24.170;2022-11-09T02:20:17;94533.38;;;11.41;nan
23166;BME280;11751;42.700;24.170;2022-11-09T02:22:43;94536.19;;;11.41;nan
23166;BME280;11751;42.700;24.170;2022-11-09T02:25:10;94538.53;;;11.50;nan
23166;BME280;11751;42.700;24.170;2022-11-09T02:27:37;94539.81;;;11.49;nan
23166;BME280;11751;42.700;24.170;2022-11-09T02:30:04;94539.41;;;11.45;nan
23166;BME280;11751;42.700;24.170;2022-11-09T02:32:30;94545.94;;;11.40;nan
23166;BME280;11751;42.700;24.170;2022-11-09T02:34:55;94540.56;;;11.49;nan
23166;BME280;11751;42.700;24.170;2022-11-09T02:37:29;94552.22;;;11.53;nan
23166;BME280;11751;42.700;24.170;2022-11-09T02:39:57;94542.63;;;11.49;nan
23166;BME280;11751;42.700;24.170;2022-11-09T02:42:25;94546.59;;;11.53;nan
23166;BME280;11751;42.700;24.170;2022-11-09T02:44:54;94549.13;;;11.44;nan
23166;BME280;11751;42.700;24.170;2022-11-09T02:47:21;94548.22;;;11.49;nan
23166;BME280;11751;42.700;24.170;2022-11-09T02:49:46;94540.34;;;11.47;nan
23166;BME280;11751;42.700;24.170;2022-11-09T02:52:12;94551.78;;;11.49;nan
23166;BME280;11751;42.700;24.170;2022-11-09T02:54:37;94556.44;;;11.47;nan
23166;BME280;11751;42.700;24.170;2022-11-09T02:57:03;94543.50;;;11.44;nan
23166;BME280;11751;42.700;24.170;2022-11-09T02:59:28;94546.72;;;11.48;nan
23166;BME280;11751;42.700;24.170;2022-11-09T03:01:54;94546.94;;;11.50;nan
23166;BME280;11751;42.700;24.170;2022-11-09T03:04:19;94551.66;;;11.55;nan
23166;BME280;11751;42.700;24.170;2022-11-09T03:06:44;94553.56;;;11.60;nan
23166;BME280;11751;42.700;24.170;2022-11-09T03:09:10;94554.31;;;11.60;nan
23166;BME280;11751;42.700;24.170;2022-11-09T03:11:38;94559.56;;;11.64;nan
23166;BME280;11751;42.700;24.170;2022-11-09T03:14:04;94560.50;;;11.66;nan
23166;BME280;11751;42.700;24.170;2022-11-09T03:16:29;94558.25;;;11.65;nan
23166;BME280;11751;42.700;24.170;2022-11-09T03:18:55;94549.84;;;11.65;nan
23166;BME280;11751;42.700;24.170;2022-11-09T03:21:22;94558.25;;;11.65;nan
23166;BME280;11751;42.700;24.170;2022-11-09T03:23:48;94548.69;;;11.60;nan
23166;BME280;11751;42.700;24.170;2022-11-09T03:26:14;94554.31;;;11.60;nan
23166;BME280;11751;42.700;24.170;2022-11-09T03:28:40;94553.16;;;11.56;nan
23166;BME280;11751;42.700;24.170;2022-11-09T03:31:06;94546.03;;;11.55;nan
23166;BME280;11751;42.700;24.170;2022-11-09T03:33:31;94551.22;;;11.51;nan
23166;BME280;11751;42.700;24.170;2022-11-09T03:35:57;94542.22;;;11.45;nan
23166;BME280;11751;42.700;24.170;2022-11-09T03:38:22;94548.22;;;11.49;nan
23166;BME280;11751;42.700;24.170;2022-11-09T03:40:47;94561.47;;;11.48;nan
23166;BME280;11751;42.700;24.170;2022-11-09T03:43:13;94558.63;;;11.41;nan
23166;BME280;11751;42.700;24.170;2022-11-09T03:45:38;94558.03;;;11.35;nan
23166;BME280;11751;42.700;24.170;2022-11-09T03:48:04;94560.50;;;11.38;nan
23166;BME280;11751;42.700;24.170;2022-11-09T03:50:31;94555.59;;;11.31;nan
23166;BME280;11751;42.700;24.170;2022-11-09T03:52:58;94552.44;;;11.35;nan
23166;BME280;11751;42.700;24.170;2022-11-09T03:55:24;94561.19;;;11.31;nan
23166;BME280;11751;42.700;24.170;2022-11-09T03:57:49;94560.06;;;11.27;nan
23166;BME280;11751;42.700;24.170;2022-11-09T04:00:17;94550.34;;;11.28;nan
23166;BME280;11751;42.700;24.170;2022-11-09T04:02:43;94560.94;;;11.22;nan
23166;BME280;11751;42.700;24.170;2022-11-09T04:05:09;94561.84;;;11.17;nan
23166;BME280;11751;42.700;24.170;2022-11-09T04:07:35;94554.69;;;11.08;nan
23166;BME280;11751;42.700;24.170;2022-11-09T04:10:01;94559.13;;;11.04;nan
23166;BME280;11751;42.700;24.170;2022-11-09T04:12:26;94564.53;;;11.02;nan
23166;BME280;11751;42.700;24.170;2022-11-09T04:14:51;94556.59;;;10.93;nan
23166;BME280;11751;42.700;24.170;2022-11-09T04:17:17;94553.41;;;10.89;nan
23166;BME280;11751;42.700;24.170;2022-11-09T04:19:42;94557.09;;;10.84;nan
23166;BME280;11751;42.700;24.170;2022-11-09T04:22:08;94561.88;;;10.76;nan
23166;BME280;11751;42.700;24.170;2022-11-09T04:24:33;94557.59;;;10.75;nan
23166;BME280;11751;42.700;24.170;2022-11-09T04:26:59;94559.78;;;10.69;nan
23166;BME280;11751;42.700;24.170;2022-11-09T04:29:24;94564.44;;;10.67;nan
23166;BME280;11751;42.700;24.170;2022-11-09T04:31:50;94568.78;;;10.55;nan
23166;BME280;11751;42.700;24.170;2022-11-09T04:34:16;94562.69;;;10.43;nan
23166;BME280;11751;42.700;24.170;2022-11-09T04:36:42;94566.38;;;10.38;nan
23166;BME280;11751;42.700;24.170;2022-11-09T04:39:08;94571.69;;;10.29;nan
23166;BME280;11751;42.700;24.170;2022-11-09T04:41:33;94573.75;;;10.28;nan
23166;BME280;11751;42.700;24.170;2022-11-09T04:43:59;94567.94;;;10.26;nan
23166;BME280;11751;42.700;24.170;2022-11-09T04:46:25;94566.44;;;10.25;nan
23166;BME280;11751;42.700;24.170;2022-11-09T04:48:51;94583.00;;;10.23;nan
23166;BME280;11751;42.700;24.170;2022-11-09T04:51:16;94577.00;;;10.20;nan
23166;BME280;11751;42.700;24.170;2022-11-09T04:53:42;94574.22;;;10.20;nan
23166;BME280;11751;42.700;24.170;2022-11-09T04:56:07;94585.63;;;10.22;nan
23166;BME280;11751;42.700;24.170;2022-11-09T04:58:33;94574.88;;;10.13;nan
23166;BME280;11751;42.700;24.170;2022-11-09T05:01:07;94579.84;;;10.07;nan
23166;BME280;11751;42.700;24.170;2022-11-09T05:03:33;94586.31;;;10.02;nan
23166;BME280;11751;42.700;24.170;2022-11-09T05:05:58;94583.94;;;9.93;nan
23166;BME280;11751;42.700;24.170;2022-11-09T05:08:24;94593.22;;;10.01;nan
23166;BME280;11751;42.700;24.170;2022-11-09T05:10:50;94596.09;;;9.95;nan
23166;BME280;11751;42.700;24.170;2022-11-09T05:13:15;94589.31;;;9.91;nan
23166;BME280;11751;42.700;24.170;2022-11-09T05:15:41;94592.97;;;9.86;nan
23166;BME280;11751;42.700;24.170;2022-11-09T05:18:07;94592.03;;;9.83;nan
23166;BME280;11751;42.700;24.170;2022-11-09T05:20:35;94600.31;;;9.76;nan
23166;BME280;11751;42.700;24.170;2022-11-09T05:23:00;94598.81;;;9.75;nan
23166;BME280;11751;42.700;24.170;2022-11-09T05:25:44;94595.72;;;9.65;nan
23166;BME280;11751;42.700;24.170;2022-11-09T05:28:10;94600.84;;;9.74;nan
23166;BME280;11751;42.700;24.170;2022-11-09T05:30:36;94596.22;;;9.77;nan
23166;BME280;11751;42.700;24.170;2022-11-09T05:33:02;94607.63;;;9.79;nan
23166;BME280;11751;42.700;24.170;2022-11-09T05:35:27;94605.72;;;9.74;nan
23166;BME280;11751;42.700;24.170;2022-11-09T05:37:53;94608.69;;;9.76;nan
23166;BME280;11751;42.700;24.170;2022-11-09T05:40:19;94610.00;;;9.75;nan
23166;BME280;11751;42.700;24.170;2022-11-09T05:42:45;94610.88;;;9.83;nan
23166;BME280;11751;42.700;24.170;2022-11-09T05:45:15;94610.19;;;9.90;nan
23166;BME280;11751;42.700;24.170;2022-11-09T05:47:42;94611.06;;;9.85;nan
23166;BME280;11751;42.700;24.170;2022-11-09T05:50:10;94625.16;;;10.05;nan
23166;BME280;11751;42.700;24.170;2022-11-09T05:52:36;94625.44;;;10.15;nan
23166;BME280;11751;42.700;24.170;2022-11-09T05:55:02;94619.59;;;10.25;nan
23166;BME280;11751;42.700;24.170;2022-11-09T05:57:28;94628.66;;;10.31;nan
23166;BME280;11751;42.700;24.170;2022-11-09T05:59:53;94624.63;;;10.40;nan
23166;BME280;11751;42.700;24.170;2022-11-09T06:02:19;94627.38;;;10.53;nan
23166;BME280;11751;42.700;24.170;2022-11-09T06:04:44;94632.66;;;10.56;nan
23166;BME280;11751;42.700;24.170;2022-11-09T06:07:10;94629.59;;;10.67;nan
23166;BME280;11751;42.700;24.170;2022-11-09T06:09:35;94634.38;;;10.80;nan
23166;BME280;11751;42.700;24.170;2022-11-09T06:12:01;94634.66;;;10.89;nan
23166;BME280;11751;42.700;24.170;2022-11-09T06:14:26;94637.72;;;10.99;nan
23166;BME280;11751;42.700;24.170;2022-11-09T06:16:52;94633.75;;;10.94;nan
23166;BME280;11751;42.700;24.170;2022-11-09T06:19:17;94636.44;;;11.00;nan
23166;BME280;11751;42.700;24.170;2022-11-09T06:21:42;94636.22;;;10.98;nan
23166;BME280;11751;42.700;24.170;2022-11-09T06:24:08;94642.97;;;11.02;nan
23166;BME280;11751;42.700;24.170;2022-11-09T06:26:34;94643.06;;;11.09;nan
23166;BME280;11751;42.700;24.170;2022-11-09T06:28:59;94641.75;;;11.10;nan
23166;BME280;11751;42.700;24.170;2022-11-09T06:31:25;94636.50;;;11.07;nan
23166;BME280;11751;42.700;24.170;2022-11-09T06:33:50;94640.53;;;11.19;nan
23166;BME280;11751;42.700;24.170;2022-11-09T06:36:16;94637.84;;;11.34;nan
23166;BME280;11751;42.700;24.170;2022-11-09T06:38:41;94631.72;;;11.35;nan
23166;BME280;11751;42.700;24.170;2022-11-09T06:41:08;94641.28;;;11.40;nan
23166;BME280;11751;42.700;24.170;2022-11-09T06:43:34;94643.16;;;11.45;nan
23166;BME280;11751;42.700;24.170;2022-11-09T06:46:02;94625.63;;;11.52;nan
23166;BME280;11751;42.700;24.170;2022-11-09T06:48:28;94638.25;;;11.38;nan
23166;BME280;11751;42.700;24.170;2022-11-09T06:50:58;94636.75;;;11.37;nan
23166;BME280;11751;42.700;24.170;2022-11-09T06:53:23;94636.34;;;11.33;nan
23166;BME280;11751;42.700;24.170;2022-11-09T06:55:51;94635.66;;;11.40;nan
23166;BME280;11751;42.700;24.170;2022-11-09T06:58:17;94637.56;;;11.45;nan
23166;BME280;11751;42.700;24.170;2022-11-09T07:00:44;94638.50;;;11.47;nan
23166;BME280;11751;42.700;24.170;2022-11-09T07:03:16;94637.72;;;11.60;nan
23166;BME280;11751;42.700;24.170;2022-11-09T07:05:42;94643.19;;;11.73;nan
23166;BME280;11751;42.700;24.170;2022-11-09T07:08:09;94635.25;;;11.92;nan
23166;BME280;11751;42.700;24.170;2022-11-09T07:10:35;94634.38;;;11.96;nan
23166;BME280;11751;42.700;24.170;2022-11-09T07:13:00;94632.03;;;12.15;nan
23166;BME280;11751;42.700;24.170;2022-11-09T07:15:27;94631.66;;;12.19;nan
23166;BME280;11751;42.700;24.170;2022-11-09T07:17:56;94624.97;;;12.29;nan
23166;BME280;11751;42.700;24.170;2022-11-09T07:20:22;94624.97;;;12.29;nan
23166;BME280;11751;42.700;24.170;2022-11-09T07:22:50;94624.06;;;12.34;nan
23166;BME280;11751;42.700;24.170;2022-11-09T07:25:16;94632.19;;;12.60;nan
23166;BME280;11751;42.700;24.170;2022-11-09T07:27:42;94625.84;;;12.67;nan
23166;BME280;11751;42.700;24.170;2022-11-09T07:30:08;94626.97;;;12.64;nan
23166;BME280;11751;42.700;24.170;2022-11-09T07:32:35;94637.50;;;12.86;nan
23166;BME280;11751;42.700;24.170;2022-11-09T07:35:01;94632.69;;;12.94;nan
23166;BME280;11751;42.700;24.170;2022-11-09T07:37:26;94632.72;;;13.24;nan
23166;BME280;11751;42.700;24.170;2022-11-09T07:39:52;94632.16;;;13.33;nan
23166;BME280;11751;42.700;24.170;2022-11-09T07:42:17;94639.47;;;13.36;nan
23166;BME280;11751;42.700;24.170;2022-11-09T07:44:42;94637.97;;;13.35;nan
23166;BME280;11751;42.700;24.170;2022-11-09T07:47:08;94630.09;;;13.26;nan
23166;BME280;11751;42.700;24.170;2022-11-09T07:49:33;94648.06;;;13.00;nan
23166;BME280;11751;42.700;24.170;2022-11-09T07:51:59;94634.88;;;12.80;nan
23166;BME280;11751;42.700;24.170;2022-11-09T07:54:25;94640.06;;;12.62;nan
23166;BME280;11751;42.700;24.170;2022-11-09T07:56:51;94628.41;;;12.50;nan
23166;BME280;11751;42.700;24.170;2022-11-09T07:59:16;94638.09;;;12.34;nan
23166;BME280;11751;42.700;24.170;2022-11-09T08:01:41;94646.72;;;12.36;nan
23166;BME280;11751;42.700;24.170;2022-11-09T08:04:07;94635.50;;;12.36;nan
23166;BME280;11751;42.700;24.170;2022-11-09T08:06:35;94639.41;;;12.33;nan
23166;BME280;11751;42.700;24.170;2022-11-09T08:09:01;94634.28;;;12.17;nan
23166;BME280;11751;42.700;24.170;2022-11-09T08:11:26;94643.75;;;12.49;nan
23166;BME280;11751;42.700;24.170;2022-11-09T08:13:52;94634.44;;;12.54;nan
23166;BME280;11751;42.700;24.170;2022-11-09T08:16:17;94643.59;;;12.55;nan
23166;BME280;11751;42.700;24.170;2022-11-09T08:18:43;94636.59;;;12.33;nan
23166;BME280;11751;42.700;24.170;2022-11-09T08:21:08;94645.25;;;12.43;nan
23166;BME280;11751;42.700;24.170;2022-11-09T08:23:34;94635.41;;;12.72;nan
23166;BME280;11751;42.700;24.170;2022-11-09T08:26:04;94629.91;;;12.51;nan
23166;BME280;11751;42.700;24.170;2022-11-09T08:28:30;94633.69;;;12.61;nan
23166;BME280;11751;42.700;24.170;2022-11-09T08:31:01;94642.81;;;12.97;nan
23166;BME280;11751;42.700;24.170;2022-11-09T08:33:29;94636.81;;;13.08;nan
23166;BME280;11751;42.700;24.170;2022-11-09T08:35:56;94637.19;;;13.27;nan
23166;BME280;11751;42.700;24.170;2022-11-09T08:38:21;94639.47;;;13.36;nan
23166;BME280;11751;42.700;24.170;2022-11-09T08:40:47;94633.66;;;13.34;nan
23166;BME280;11751;42.700;24.170;2022-11-09T08:43:12;94640.19;;;13.51;nan
23166;BME280;11751;42.700;24.170;2022-11-09T08:45:39;94641.72;;;13.45;nan
23166;BME280;11751;42.700;24.170;2022-11-09T08:48:06;94635.16;;;13.65;nan
23166;BME280;11751;42.700;24.170;2022-11-09T08:50:34;94636.81;;;13.67;nan
23166;BME280;11751;42.700;24.170;2022-11-09T08:53:01;94634.94;;;13.77;nan
23166;BME280;11751;42.700;24.170;2022-11-09T08:55:27;94638.47;;;13.85;nan
23166;BME280;11751;42.700;24.170;2022-11-09T08:57:56;94637.94;;;13.79;nan
23166;BME280;11751;42.700;24.170;2022-11-09T09:00:22;94645.78;;;13.88;nan
23166;BME280;11751;42.700;24.170;2022-11-09T09:02:47;94640.91;;;14.11;nan
23166;BME280;11751;42.700;24.170;2022-11-09T09:05:14;94634.44;;;14.33;nan
23166;BME280;11751;42.700;24.170;2022-11-09T09:07:39;94638.50;;;14.54;nan
23166;BME280;11751;42.700;24.170;2022-11-09T09:10:05;94634.34;;;14.63;nan
23166;BME280;11751;42.700;24.170;2022-11-09T09:12:30;94636.25;;;14.85;nan
23166;BME280;11751;42.700;24.170;2022-11-09T09:14:56;94630.72;;;15.02;nan
23166;BME280;11751;42.700;24.170;2022-11-09T09:17:22;94630.66;;;15.09;nan
23166;BME280;11751;42.700;24.170;2022-11-09T09:19:47;94627.28;;;15.11;nan
23166;BME280;11751;42.700;24.170;2022-11-09T09:22:13;94624.16;;;15.24;nan
23166;BME280;11751;42.700;24.170;2022-11-09T09:24:38;94620.41;;;15.29;nan
23166;BME280;11751;42.700;24.170;2022-11-09T09:27:03;94623.06;;;15.19;nan
23166;BME280;11751;42.700;24.170;2022-11-09T09:29:29;94614.41;;;15.49;nan
23166;BME280;11751;42.700;24.170;2022-11-09T09:31:54;94615.56;;;15.70;nan
23166;BME280;11751;42.700;24.170;2022-11-09T09:34:20;94607.84;;;15.88;nan
23166;BME280;11751;42.700;24.170;2022-11-09T09:36:45;94609.63;;;16.00;nan
23166;BME280;11751;42.700;24.170;2022-11-09T09:39:11;94600.38;;;16.00;nan
23166;BME280;11751;42.700;24.170;2022-11-09T09:41:57;94598.72;;;16.14;nan
23166;BME280;11751;42.700;24.170;2022-11-09T09:47:29;94591.69;;;16.39;nan
23166;BME280;11751;42.700;24.170;2022-11-09T09:50:01;94588.19;;;16.31;nan
23166;BME280;11751;42.700;24.170;2022-11-09T09:52:37;94579.19;;;16.25;nan
23166;BME280;11751;42.700;24.170;2022-11-09T09:55:27;94571.34;;;16.50;nan
23166;BME280;11751;42.700;24.170;2022-11-09T09:58:05;94572.22;;;16.43;nan
23166;BME280;11751;42.700;24.170;2022-11-09T10:00:32;94574.69;;;16.56;nan
23166;BME280;11751;42.700;24.170;2022-11-09T10:03:00;94573.47;;;16.32;nan
23166;BME280;11751;42.700;24.170;2022-11-09T10:05:57;94575.44;;;16.56;nan
23166;BME280;11751;42.700;24.170;2022-11-09T10:08:47;94560.19;;;16.69;nan
23166;BME280;11751;42.700;24.170;2022-11-09T10:16:50;94564.75;;;16.91;nan
23166;BME280;11751;42.700;24.170;2022-11-09T10:25:05;94551.97;;;17.25;nan
23166;BME280;11751;42.700;24.170;2022-11-09T10:27:36;94544.91;;;17.43;nan
23166;BME280;11751;42.700;24.170;2022-11-09T10:30:12;94549.53;;;17.48;nan
23166;BME280;11751;42.700;24.170;2022-11-09T10:32:40;94542.53;;;17.49;nan
23166;BME280;11751;42.700;24.170;2022-11-09T10:37:43;94545.63;;;17.34;nan
23166;BME280;11751;42.700;24.170;2022-11-09T10:40:15;94537.31;;;17.36;nan
23166;BME280;11751;42.700;24.170;2022-11-09T10:42:52;94522.22;;;17.34;nan
23166;BME280;11751;42.700;24.170;2022-11-09T10:45:30;94532.13;;;17.52;nan
23166;BME280;11751;42.700;24.170;2022-11-09T10:47:56;94524.56;;;17.73;nan
23166;BME280;11751;42.700;24.170;2022-11-09T10:50:34;94517.09;;;17.59;nan
23166;BME280;11751;42.700;24.170;2022-11-09T10:53:22;94520.56;;;17.76;nan
23166;BME280;11751;42.700;24.170;2022-11-09T11:01:19;94511.28;;;17.76;nan
23166;BME280;11751;42.700;24.170;2022-11-09T11:03:44;94512.81;;;17.86;nan
23166;BME280;11751;42.700;24.170;2022-11-09T11:06:26;94506.38;;;17.76;nan
23166;BME280;11751;42.700;24.170;2022-11-09T11:11:32;94501.16;;;17.82;nan
23166;BME280;11751;42.700;24.170;2022-11-09T11:16:36;94505.19;;;17.79;nan
23166;BME280;11751;42.700;24.170;2022-11-09T11:19:03;94501.00;;;17.80;nan
23166;BME280;11751;42.700;24.170;2022-11-09T11:21:29;94498.03;;;17.69;nan
23166;BME280;11751;42.700;24.170;2022-11-09T11:29:31;94489.97;;;17.65;nan
23166;BME280;11751;42.700;24.170;2022-11-09T11:31:59;94487.91;;;17.75;nan
23166;BME280;11751;42.700;24.170;2022-11-09T11:34:25;94493.72;;;17.96;nan
23166;BME280;11751;42.700;24.170;2022-11-09T11:51:02;94478.66;;;18.31;nan
23166;BME280;11751;42.700;24.170;2022-11-09T12:15:58;94467.59;;;18.45;nan
23166;BME280;11751;42.700;24.170;2022-11-09T12:21:18;94463.75;;;18.21;nan
23166;BME280;11751;42.700;24.170;2022-11-09T12:26:51;94462.69;;;18.26;nan
23166;BME280;11751;42.700;24.170;2022-11-09T12:32:30;94463.00;;;18.02;nan
23166;BME280;11751;42.700;24.170;2022-11-09T12:37:37;94458.53;;;18.08;nan
23166;BME280;11751;42.700;24.170;2022-11-09T12:40:30;94462.84;;;18.00;nan
23166;BME280;11751;42.700;24.170;2022-11-09T12:43:17;94448.97;;;17.95;nan
23166;BME280;11751;42.700;24.170;2022-11-09T12:45:44;94460.44;;;17.87;nan
23166;BME280;11751;42.700;24.170;2022-11-09T12:48:27;94456.28;;;17.79;nan
23166;BME280;11751;42.700;24.170;2022-11-09T12:50:54;94446.75;;;17.74;nan
23166;BME280;11751;42.700;24.170;2022-11-09T12:53:24;94456.00;;;17.65;nan
23166;BME280;11751;42.700;24.170;2022-11-09T12:58:25;94451.81;;;17.66;nan
23166;BME280;11751;42.700;24.170;2022-11-09T13:00:53;94447.03;;;17.59;nan
23166;BME280;11751;42.700;24.170;2022-11-09T13:03:22;94447.59;;;17.48;nan
23166;BME280;11751;42.700;24.170;2022-11-09T13:06:11;94455.97;;;17.46;nan
23166;BME280;11751;42.700;24.170;2022-11-09T13:08:38;94453.44;;;17.41;nan
23166;BME280;11751;42.700;24.170;2022-11-09T13:11:17;94452.66;;;17.40;nan
23166;BME280;11751;42.700;24.170;2022-11-09T13:13:44;94442.56;;;17.37;nan
23166;BME280;11751;42.700;24.170;2022-11-09T13:23:51;94453.28;;;17.39;nan
23166;BME280;11751;42.700;24.170;2022-11-09T13:34:39;94440.22;;;17.17;nan
23166;BME280;11751;42.700;24.170;2022-11-09T13:39:58;94444.59;;;17.27;nan
23166;BME280;11751;42.700;24.170;2022-11-09T13:42:29;94444.91;;;17.31;nan
23166;BME280;11751;42.700;24.170;2022-11-09T13:45:34;94446.56;;;17.34;nan
23166;BME280;11751;42.700;24.170;2022-11-09T13:48:00;94445.66;;;17.32;nan
23166;BME280;11751;42.700;24.170;2022-11-09T13:50:28;94443.94;;;17.19;nan
23166;BME280;11751;42.700;24.170;2022-11-09T13:52:58;94451.59;;;17.26;nan
23166;BME280;11751;42.700;24.170;2022-11-09T13:55:38;94448.50;;;17.41;nan
23166;BME280;11751;42.700;24.170;2022-11-09T13:58:27;94457.16;;;17.43;nan
23166;BME280;11751;42.700;24.170;2022-11-09T14:00:54;94448.16;;;17.28;nan
23166;BME280;11751;42.700;24.170;2022-11-09T14:03:25;94450.56;;;17.31;nan
23166;BME280;11751;42.700;24.170;2022-11-09T14:05:54;94449.31;;;17.25;nan
23166;BME280;11751;42.700;24.170;2022-11-09T14:08:24;94450.81;;;17.16;nan
23166;BME280;11751;42.700;24.170;2022-11-09T14:18:26;94445.97;;;16.91;nan
23166;BME280;11751;42.700;24.170;2022-11-09T14:23:36;94452.03;;;16.78;nan
23166;BME280;11751;42.700;24.170;2022-11-09T14:26:06;94450.03;;;16.61;nan
23166;BME280;11751;42.700;24.170;2022-11-09T14:28:32;94456.56;;;16.64;nan
23166;BME280;11751;42.700;24.170;2022-11-09T14:30:59;94460.91;;;16.65;nan
23166;BME280;11751;42.700;24.170;2022-11-09T14:33:30;94457.91;;;16.63;nan
23166;BME280;11751;42.700;24.170;2022-11-09T14:36:00;94457.75;;;16.61;nan
23166;BME280;11751;42.700;24.170;2022-11-09T14:38:32;94448.78;;;16.55;nan
23166;BME280;11751;42.700;24.170;2022-11-09T14:40:59;94455.84;;;16.37;nan
23166;BME280;11751;42.700;24.170;2022-11-09T14:43:43;94454.03;;;16.32;nan
23166;BME280;11751;42.700;24.170;2022-11-09T14:46:17;94458.19;;;16.31;nan
23166;BME280;11751;42.700;24.170;2022-11-09T14:48:55;94460.03;;;16.19;nan
23166;BME280;11751;42.700;24.170;2022-11-09T14:51:26;94466.53;;;15.95;nan
23166;BME280;11751;42.700;24.170;2022-11-09T14:53:55;94468.47;;;15.93;nan
23166;BME280;11751;42.700;24.170;2022-11-09T14:56:22;94473.03;;;15.88;nan
23166;BME280;11751;42.700;24.170;2022-11-09T14:58:49;94466.75;;;15.80;nan
23166;BME280;11751;42.700;24.170;2022-11-09T15:04:11;94474.03;;;15.66;nan
23166;BME280;11751;42.700;24.170;2022-11-09T15:06:58;94482.84;;;15.53;nan
23166;BME280;11751;42.700;24.170;2022-11-09T15:09:34;94487.50;;;15.42;nan
23166;BME280;11751;42.700;24.170;2022-11-09T15:12:13;94478.84;;;15.40;nan
23166;BME280;11751;42.700;24.170;2022-11-09T15:14:39;94479.94;;;15.44;nan
23166;BME280;11751;42.700;24.170;2022-11-09T15:17:30;94488.56;;;15.46;nan